sensor_id;sensor_type;location;lat;lon;timestamp;pressure;altitude;pressure_sealevel;temperature;humidity
68329;BME280;55182;56.864;60.554;2023-03-19T00:00:23;78434.28;;;-143.60;52.03
68329;BME280;55182;56.864;60.554;2023-03-19T00:02:48;78442.34;;;-143.60;52.77
68329;BME280;55182;56.864;60.554;2023-03-19T00:05:14;78440.31;;;-143.60;52.78
68329;BME280;55182;56.864;60.554;2023-03-19T00:07:40;78440.31;;;-143.60;53.02
68329;BME280;55182;56.864;60.554;2023-03-19T00:10:06;78446.34;;;-143.60;52.87
68329;BME280;55182;56.864;60.554;2023-03-19T00:12:32;78452.38;;;-143.60;53.23
68329;BME280;55182;56.864;60.554;2023-03-19T00:14:58;78454.41;;;-143.60;52.96
68329;BME280;55182;56.864;60.554;2023-03-19T00:17:23;78466.47;;;-143.60;53.03
68329;BME280;55182;56.864;60.554;2023-03-19T00:19:49;78462.44;;;-143.60;52.97
68329;BME280;55182;56.864;60.554;2023-03-19T00:22:14;78462.44;;;-143.60;53.42
68329;BME280;55182;56.864;60.554;2023-03-19T00:24:40;78470.47;;;-143.60;53.31
68329;BME280;55182;56.864;60.554;2023-03-19T00:27:05;78480.53;;;-143.60;53.28
68329;BME280;55182;56.864;60.554;2023-03-19T00:29:31;78478.53;;;-143.60;53.22
68329;BME280;55182;56.864;60.554;2023-03-19T00:31:56;78484.56;;;-143.60;53.16
68329;BME280;55182;56.864;60.554;2023-03-19T00:34:22;78478.53;;;-143.60;53.60
68329;BME280;55182;56.864;60.554;2023-03-19T00:36:48;78478.53;;;-143.60;53.80
68329;BME280;55182;56.864;60.554;2023-03-19T00:39:13;78492.59;;;-143.60;53.78
68329;BME280;55182;56.864;60.554;2023-03-19T00:41:39;78478.53;;;-143.60;54.04
68329;BME280;55182;56.864;60.554;2023-03-19T00:44:04;78484.56;;;-143.60;53.76
68329;BME280;55182;56.864;60.554;2023-03-19T00:46:30;78494.59;;;-143.60;53.84
68329;BME280;55182;56.864;60.554;2023-03-19T00:48:55;78498.63;;;-143.60;54.18
68329;BME280;55182;56.864;60.554;2023-03-19T00:51:22;78506.69;;;-143.60;54.18
68329;BME280;55182;56.864;60.554;2023-03-19T00:53:48;78518.75;;;-143.60;54.37
68329;BME280;55182;56.864;60.554;2023-03-19T00:56:14;78532.81;;;-143.60;54.67
68329;BME280;55182;56.864;60.554;2023-03-19T00:58:40;78538.84;;;-143.60;54.84
68329;BME280;55182;56.864;60.554;2023-03-19T01:01:07;78544.88;;;-143.60;55.30
68329;BME280;55182;56.864;60.554;2023-03-19T01:03:33;78550.91;;;-143.60;55.51
68329;BME280;55182;56.864;60.554;2023-03-19T01:05:58;78558.94;;;-143.60;56.34
68329;BME280;55182;56.864;60.554;2023-03-19T01:08:25;78564.97;;;-143.60;56.78
68329;BME280;55182;56.864;60.554;2023-03-19T01:10:52;78571.00;;;-143.60;57.78
68329;BME280;55182;56.864;60.554;2023-03-19T01:13:17;78583.09;;;-143.60;57.90
68329;BME280;55182;56.864;60.554;2023-03-19T01:15:43;78595.16;;;-143.60;57.98
68329;BME280;55182;56.864;60.554;2023-03-19T01:18:09;78607.22;;;-143.60;58.21
68329;BME280;55182;56.864;60.554;2023-03-19T01:20:36;78613.25;;;-143.60;58.40
68329;BME280;55182;56.864;60.554;2023-03-19T01:23:03;78623.28;;;-143.60;58.83
68329;BME280;55182;56.864;60.554;2023-03-19T01:25:29;78631.34;;;-143.60;59.52
68329;BME280;55182;56.864;60.554;2023-03-19T01:28:03;78631.34;;;-143.60;60.41
68329;BME280;55182;56.864;60.554;2023-03-19T01:30:30;78635.34;;;-143.60;60.72
68329;BME280;55182;56.864;60.554;2023-03-19T01:33:10;78651.44;;;-143.60;61.35
68329;BME280;55182;56.864;60.554;2023-03-19T01:35:46;78653.47;;;-143.60;61.13
68329;BME280;55182;56.864;60.554;2023-03-19T01:38:12;78659.50;;;-143.60;61.25
68329;BME280;55182;56.864;60.554;2023-03-19T01:40:45;78659.50;;;-143.60;61.26
68329;BME280;55182;56.864;60.554;2023-03-19T01:43:19;78647.41;;;-143.60;60.98
68329;BME280;55182;56.864;60.554;2023-03-19T01:45:52;78623.28;;;-143.60;60.53
68329;BME280;55182;56.864;60.554;2023-03-19T01:48:44;78607.22;;;-143.60;59.92
68329;BME280;55182;56.864;60.554;2023-03-19T01:51:14;78609.22;;;-143.60;60.05
68329;BME280;55182;56.864;60.554;2023-03-19T01:53:48;78615.25;;;-143.60;60.22
68329;BME280;55182;56.864;60.554;2023-03-19T01:56:38;78617.25;;;-143.60;60.13
68329;BME280;55182;56.864;60.554;2023-03-19T01:59:32;78617.25;;;-143.60;59.94
68329;BME280;55182;56.864;60.554;2023-03-19T02:02:20;78615.25;;;-143.60;59.99
68329;BME280;55182;56.864;60.554;2023-03-19T02:04:46;78607.22;;;-143.60;59.90
68329;BME280;55182;56.864;60.554;2023-03-19T02:07:15;78611.22;;;-143.60;60.14
68329;BME280;55182;56.864;60.554;2023-03-19T02:09:40;78613.25;;;-143.60;60.83
68329;BME280;55182;56.864;60.554;2023-03-19T02:12:07;78617.25;;;-143.60;61.06
68329;BME280;55182;56.864;60.554;2023-03-19T02:14:33;78611.22;;;-143.60;61.33
68329;BME280;55182;56.864;60.554;2023-03-19T02:16:59;78617.25;;;-143.60;61.28
68329;BME280;55182;56.864;60.554;2023-03-19T02:21:51;78619.28;;;-143.60;61.83
68329;BME280;55182;56.864;60.554;2023-03-19T02:24:22;78629.31;;;-143.60;61.95
68329;BME280;55182;56.864;60.554;2023-03-19T02:27:01;78637.38;;;-143.60;62.13
68329;BME280;55182;56.864;60.554;2023-03-19T02:29:27;78635.34;;;-143.60;61.96
68329;BME280;55182;56.864;60.554;2023-03-19T02:31:57;78615.25;;;-143.60;61.92
68329;BME280;55182;56.864;60.554;2023-03-19T02:36:50;78615.25;;;-143.60;61.86
68329;BME280;55182;56.864;60.554;2023-03-19T02:39:30;78611.22;;;-143.60;61.39
68329;BME280;55182;56.864;60.554;2023-03-19T02:41:57;78611.22;;;-143.60;61.25
68329;BME280;55182;56.864;60.554;2023-03-19T02:44:26;78617.25;;;-143.60;60.92
68329;BME280;55182;56.864;60.554;2023-03-19T02:46:51;78607.22;;;-143.60;60.71
68329;BME280;55182;56.864;60.554;2023-03-19T02:49:17;78603.19;;;-143.60;60.55
68329;BME280;55182;56.864;60.554;2023-03-19T02:51:42;78601.19;;;-143.60;60.48
68329;BME280;55182;56.864;60.554;2023-03-19T02:54:08;78587.09;;;-143.60;61.02
68329;BME280;55182;56.864;60.554;2023-03-19T02:56:33;78599.16;;;-143.60;61.07
68329;BME280;55182;56.864;60.554;2023-03-19T02:58:59;78599.16;;;-143.60;61.56
68329;BME280;55182;56.864;60.554;2023-03-19T03:01:24;78601.19;;;-143.60;61.57
68329;BME280;55182;56.864;60.554;2023-03-19T03:03:50;78603.19;;;-143.60;61.54
68329;BME280;55182;56.864;60.554;2023-03-19T03:06:15;78599.16;;;-143.60;61.25
68329;BME280;55182;56.864;60.554;2023-03-19T03:08:42;78595.16;;;-143.60;60.99
68329;BME280;55182;56.864;60.554;2023-03-19T03:11:08;78589.13;;;-143.60;60.59
68329;BME280;55182;56.864;60.554;2023-03-19T03:13:34;78583.09;;;-143.60;60.27
68329;BME280;55182;56.864;60.554;2023-03-19T03:16:00;78583.09;;;-143.60;60.81
68329;BME280;55182;56.864;60.554;2023-03-19T03:18:27;78591.13;;;-143.60;61.21
68329;BME280;55182;56.864;60.554;2023-03-19T03:20:52;78591.13;;;-143.60;61.46
68329;BME280;55182;56.864;60.554;2023-03-19T03:23:18;78585.09;;;-143.60;62.57
68329;BME280;55182;56.864;60.554;2023-03-19T03:25:43;78583.09;;;-143.60;61.39
68329;BME280;55182;56.864;60.554;2023-03-19T03:28:09;78583.09;;;-143.60;62.69
68329;BME280;55182;56.864;60.554;2023-03-19T03:30:36;78589.13;;;-143.60;63.15
68329;BME280;55182;56.864;60.554;2023-03-19T03:33:02;78595.16;;;-143.60;62.66
68329;BME280;55182;56.864;60.554;2023-03-19T03:35:28;78595.16;;;-143.60;62.01
68329;BME280;55182;56.864;60.554;2023-03-19T03:37:53;78587.09;;;-143.60;62.16
68329;BME280;55182;56.864;60.554;2023-03-19T03:40:19;78591.13;;;-143.60;61.95
68329;BME280;55182;56.864;60.554;2023-03-19T03:42:45;78579.06;;;-143.60;62.00
68329;BME280;55182;56.864;60.554;2023-03-19T03:45:11;78571.00;;;-143.60;62.23
68329;BME280;55182;56.864;60.554;2023-03-19T03:47:38;78571.00;;;-143.60;62.43
68329;BME280;55182;56.864;60.554;2023-03-19T03:50:04;78575.03;;;-143.60;62.30
68329;BME280;55182;56.864;60.554;2023-03-19T03:52:30;78573.03;;;-143.60;62.01
68329;BME280;55182;56.864;60.554;2023-03-19T03:54:57;78569.00;;;-143.60;61.73
68329;BME280;55182;56.864;60.554;2023-03-19T03:57:23;78550.91;;;-143.60;61.16
68329;BME280;55182;56.864;60.554;2023-03-19T03:59:49;78544.88;;;-143.60;60.57
68329;BME280;55182;56.864;60.554;2023-03-19T04:02:14;78540.84;;;-143.60;60.70
68329;BME280;55182;56.864;60.554;2023-03-19T04:04:41;78526.78;;;-143.60;60.22
68329;BME280;55182;56.864;60.554;2023-03-19T04:07:07;78530.81;;;-143.60;60.22
68329;BME280;55182;56.864;60.554;2023-03-19T04:09:42;78534.81;;;-143.60;60.43
68329;BME280;55182;56.864;60.554;2023-03-19T04:12:08;78528.78;;;-143.60;60.07
68329;BME280;55182;56.864;60.554;2023-03-19T04:14:34;78526.78;;;-143.60;60.09
68329;BME280;55182;56.864;60.554;2023-03-19T04:17:00;78514.72;;;-143.60;60.14
68329;BME280;55182;56.864;60.554;2023-03-19T04:19:26;78508.69;;;-143.60;61.14
68329;BME280;55182;56.864;60.554;2023-03-19T04:21:52;78494.59;;;-143.60;61.25
68329;BME280;55182;56.864;60.554;2023-03-19T04:24:18;78490.59;;;-143.60;60.89
68329;BME280;55182;56.864;60.554;2023-03-19T04:26:43;78474.50;;;-143.60;59.72
68329;BME280;55182;56.864;60.554;2023-03-19T04:29:10;78474.50;;;-143.60;59.15
68329;BME280;55182;56.864;60.554;2023-03-19T04:31:36;78466.47;;;-143.60;59.14
68329;BME280;55182;56.864;60.554;2023-03-19T04:34:02;78468.47;;;-143.60;59.43
68329;BME280;55182;56.864;60.554;2023-03-19T04:36:28;78482.53;;;-143.60;58.78
68329;BME280;55182;56.864;60.554;2023-03-19T04:38:53;78482.53;;;-143.60;58.94
68329;BME280;55182;56.864;60.554;2023-03-19T04:41:19;78478.53;;;-143.60;59.60
68329;BME280;55182;56.864;60.554;2023-03-19T04:44:01;78470.47;;;-143.60;60.02
68329;BME280;55182;56.864;60.554;2023-03-19T04:46:27;78466.47;;;-143.60;59.79
68329;BME280;55182;56.864;60.554;2023-03-19T04:48:53;78458.41;;;-143.60;58.78
68329;BME280;55182;56.864;60.554;2023-03-19T04:51:18;78450.38;;;-143.60;58.48
68329;BME280;55182;56.864;60.554;2023-03-19T04:53:44;78436.31;;;-143.60;58.17
68329;BME280;55182;56.864;60.554;2023-03-19T04:56:11;78428.25;;;-143.60;58.53
68329;BME280;55182;56.864;60.554;2023-03-19T04:58:37;78422.22;;;-143.60;58.25
68329;BME280;55182;56.864;60.554;2023-03-19T05:01:03;78414.19;;;-143.60;58.48
68329;BME280;55182;56.864;60.554;2023-03-19T05:03:49;78406.13;;;-143.60;57.08
68329;BME280;55182;56.864;60.554;2023-03-19T05:06:15;78390.06;;;-143.60;56.54
68329;BME280;55182;56.864;60.554;2023-03-19T05:08:40;78371.97;;;-143.60;57.30
68329;BME280;55182;56.864;60.554;2023-03-19T05:11:06;78361.91;;;-143.60;56.81
68329;BME280;55182;56.864;60.554;2023-03-19T05:13:45;78345.81;;;-143.60;55.73
68329;BME280;55182;56.864;60.554;2023-03-19T05:16:11;78341.81;;;-143.60;55.70
68329;BME280;55182;56.864;60.554;2023-03-19T05:18:37;78331.75;;;-143.60;55.74
68329;BME280;55182;56.864;60.554;2023-03-19T05:21:02;78321.69;;;-143.60;55.24
68329;BME280;55182;56.864;60.554;2023-03-19T05:23:29;78309.63;;;-143.60;55.62
68329;BME280;55182;56.864;60.554;2023-03-19T05:26:05;78303.59;;;-143.60;55.29
68329;BME280;55182;56.864;60.554;2023-03-19T05:29:02;78299.59;;;-143.60;53.70
68329;BME280;55182;56.864;60.554;2023-03-19T05:31:38;78291.53;;;-143.60;52.86
68329;BME280;55182;56.864;60.554;2023-03-19T05:34:05;78277.47;;;-143.60;53.90
68329;BME280;55182;56.864;60.554;2023-03-19T05:36:32;78269.41;;;-143.60;51.81
68329;BME280;55182;56.864;60.554;2023-03-19T05:39:05;78265.41;;;-143.60;51.33
68329;BME280;55182;56.864;60.554;2023-03-19T05:41:35;78261.38;;;-143.60;50.05
68329;BME280;55182;56.864;60.554;2023-03-19T05:44:04;78251.31;;;-143.60;49.32
68329;BME280;55182;56.864;60.554;2023-03-19T05:46:46;78247.31;;;-143.60;47.90
68329;BME280;55182;56.864;60.554;2023-03-19T05:49:14;78235.25;;;-143.60;47.94
68329;BME280;55182;56.864;60.554;2023-03-19T05:51:40;78221.16;;;-143.60;48.66
68329;BME280;55182;56.864;60.554;2023-03-19T05:54:07;78215.13;;;-143.60;47.23
68329;BME280;55182;56.864;60.554;2023-03-19T05:56:37;78207.09;;;-143.60;47.91
68329;BME280;55182;56.864;60.554;2023-03-19T05:59:38;78201.06;;;-143.60;46.21
68329;BME280;55182;56.864;60.554;2023-03-19T06:02:23;78189.00;;;-143.60;44.78
68329;BME280;55182;56.864;60.554;2023-03-19T06:04:57;78172.91;;;-143.60;45.13
68329;BME280;55182;56.864;60.554;2023-03-19T06:07:27;78156.84;;;-143.60;43.08
68329;BME280;55182;56.864;60.554;2023-03-19T06:09:53;78138.75;;;-143.60;43.61
68329;BME280;55182;56.864;60.554;2023-03-19T06:12:18;78128.69;;;-143.60;41.34
68329;BME280;55182;56.864;60.554;2023-03-19T06:15:14;78110.59;;;-143.60;42.27
68329;BME280;55182;56.864;60.554;2023-03-19T06:17:39;78096.53;;;-143.60;42.41
68329;BME280;55182;56.864;60.554;2023-03-19T06:20:08;78092.50;;;-143.60;41.90
68329;BME280;55182;56.864;60.554;2023-03-19T06:22:34;78084.47;;;-143.60;42.27
68329;BME280;55182;56.864;60.554;2023-03-19T06:25:00;78086.47;;;-143.60;42.38
68329;BME280;55182;56.864;60.554;2023-03-19T06:27:27;78088.47;;;-143.60;39.71
68329;BME280;55182;56.864;60.554;2023-03-19T06:30:02;78084.47;;;-143.60;38.44
68329;BME280;55182;56.864;60.554;2023-03-19T06:32:31;78080.44;;;-143.60;39.37
68329;BME280;55182;56.864;60.554;2023-03-19T06:35:04;78068.38;;;-143.60;40.71
68329;BME280;55182;56.864;60.554;2023-03-19T06:37:30;78056.31;;;-143.60;39.73
68329;BME280;55182;56.864;60.554;2023-03-19T06:39:55;78040.22;;;-143.60;39.50
68329;BME280;55182;56.864;60.554;2023-03-19T06:42:21;78026.16;;;-143.60;39.55
68329;BME280;55182;56.864;60.554;2023-03-19T06:44:47;78016.09;;;-143.60;39.13
68329;BME280;55182;56.864;60.554;2023-03-19T06:47:13;78004.03;;;-143.60;38.74
68329;BME280;55182;56.864;60.554;2023-03-19T06:49:40;78006.06;;;-143.60;38.43
68329;BME280;55182;56.864;60.554;2023-03-19T06:52:07;78004.03;;;-143.60;38.09
68329;BME280;55182;56.864;60.554;2023-03-19T06:54:32;77996.00;;;-143.60;39.33
68329;BME280;55182;56.864;60.554;2023-03-19T06:56:58;77983.94;;;-143.60;38.78
68329;BME280;55182;56.864;60.554;2023-03-19T06:59:23;77975.91;;;-143.60;37.55
68329;BME280;55182;56.864;60.554;2023-03-19T07:01:49;77959.81;;;-143.60;38.58
68329;BME280;55182;56.864;60.554;2023-03-19T07:04:14;77947.75;;;-143.60;38.05
68329;BME280;55182;56.864;60.554;2023-03-19T07:06:40;77941.72;;;-143.60;37.29
68329;BME280;55182;56.864;60.554;2023-03-19T07:09:05;77941.72;;;-143.60;36.73
68329;BME280;55182;56.864;60.554;2023-03-19T07:11:31;77939.72;;;-143.60;37.00
68329;BME280;55182;56.864;60.554;2023-03-19T07:13:56;77939.72;;;-143.60;38.45
68329;BME280;55182;56.864;60.554;2023-03-19T07:16:22;77929.66;;;-143.60;37.85
68329;BME280;55182;56.864;60.554;2023-03-19T07:18:48;77899.50;;;-143.60;36.85
68329;BME280;55182;56.864;60.554;2023-03-19T07:21:13;77863.31;;;-143.60;36.62
68329;BME280;55182;56.864;60.554;2023-03-19T07:23:39;77857.28;;;-143.60;35.96
68329;BME280;55182;56.864;60.554;2023-03-19T07:26:05;77843.22;;;-143.60;36.74
68329;BME280;55182;56.864;60.554;2023-03-19T07:28:31;77849.25;;;-143.60;34.96
68329;BME280;55182;56.864;60.554;2023-03-19T07:30:58;77855.28;;;-143.60;33.82
68329;BME280;55182;56.864;60.554;2023-03-19T07:33:23;77857.28;;;-143.60;35.32
68329;BME280;55182;56.864;60.554;2023-03-19T07:35:50;77859.28;;;-143.60;36.56
68329;BME280;55182;56.864;60.554;2023-03-19T07:38:15;77855.28;;;-143.60;37.27
68329;BME280;55182;56.864;60.554;2023-03-19T07:40:41;77851.25;;;-143.60;38.62
68329;BME280;55182;56.864;60.554;2023-03-19T07:43:06;77845.22;;;-143.60;35.85
68329;BME280;55182;56.864;60.554;2023-03-19T07:45:32;77831.16;;;-143.60;36.23
68329;BME280;55182;56.864;60.554;2023-03-19T07:47:58;77827.13;;;-143.60;35.89
68329;BME280;55182;56.864;60.554;2023-03-19T07:50:23;77827.13;;;-143.60;35.33
68329;BME280;55182;56.864;60.554;2023-03-19T07:52:49;77817.06;;;-143.60;35.88
68329;BME280;55182;56.864;60.554;2023-03-19T07:55:14;77790.94;;;-143.60;34.79
68329;BME280;55182;56.864;60.554;2023-03-19T07:57:40;77778.88;;;-143.60;35.62
68329;BME280;55182;56.864;60.554;2023-03-19T08:00:05;77758.78;;;-143.60;36.28
68329;BME280;55182;56.864;60.554;2023-03-19T08:02:38;77730.63;;;-143.60;35.36
68329;BME280;55182;56.864;60.554;2023-03-19T08:05:04;77712.53;;;-143.60;34.52
68329;BME280;55182;56.864;60.554;2023-03-19T08:07:31;77702.50;;;-143.60;33.70
68329;BME280;55182;56.864;60.554;2023-03-19T08:09:56;77686.41;;;-143.60;34.65
68329;BME280;55182;56.864;60.554;2023-03-19T08:12:24;77662.28;;;-143.60;33.92
68329;BME280;55182;56.864;60.554;2023-03-19T08:14:49;77648.22;;;-143.60;33.34
68329;BME280;55182;56.864;60.554;2023-03-19T08:17:15;77634.13;;;-143.60;33.04
68329;BME280;55182;56.864;60.554;2023-03-19T08:19:42;77614.03;;;-143.60;33.57
68329;BME280;55182;56.864;60.554;2023-03-19T08:22:07;77606.00;;;-143.60;32.34
68329;BME280;55182;56.864;60.554;2023-03-19T08:24:33;77620.06;;;-143.60;32.39
68329;BME280;55182;56.864;60.554;2023-03-19T08:26:59;77618.06;;;-143.60;32.94
68329;BME280;55182;56.864;60.554;2023-03-19T08:29:25;77601.97;;;-143.60;32.17
68329;BME280;55182;56.864;60.554;2023-03-19T08:31:51;77597.97;;;-143.60;32.69
68329;BME280;55182;56.864;60.554;2023-03-19T08:34:16;77591.94;;;-143.60;33.59
68329;BME280;55182;56.864;60.554;2023-03-19T08:36:42;77573.84;;;-143.60;33.27
68329;BME280;55182;56.864;60.554;2023-03-19T08:39:08;77565.78;;;-143.60;32.09
68329;BME280;55182;56.864;60.554;2023-03-19T08:41:33;77545.69;;;-143.60;31.06
68329;BME280;55182;56.864;60.554;2023-03-19T08:43:59;77543.69;;;-143.60;30.74
68329;BME280;55182;56.864;60.554;2023-03-19T08:46:24;77549.72;;;-143.60;31.79
68329;BME280;55182;56.864;60.554;2023-03-19T08:48:50;77541.66;;;-143.60;31.34
68329;BME280;55182;56.864;60.554;2023-03-19T08:51:15;77533.63;;;-143.60;30.96
68329;BME280;55182;56.864;60.554;2023-03-19T08:53:40;77525.59;;;-143.60;31.44
68329;BME280;55182;56.864;60.554;2023-03-19T08:56:06;77529.59;;;-143.60;32.07
68329;BME280;55182;56.864;60.554;2023-03-19T08:58:32;77513.53;;;-143.60;32.09
68329;BME280;55182;56.864;60.554;2023-03-19T09:01:04;77501.47;;;-143.60;31.86
68329;BME280;55182;56.864;60.554;2023-03-19T09:03:30;77483.38;;;-143.60;31.26
68329;BME280;55182;56.864;60.554;2023-03-19T09:06:02;77469.31;;;-143.60;31.00
68329;BME280;55182;56.864;60.554;2023-03-19T09:08:28;77457.25;;;-143.60;32.07
68329;BME280;55182;56.864;60.554;2023-03-19T09:10:54;77441.16;;;-143.60;30.07
68329;BME280;55182;56.864;60.554;2023-03-19T09:13:19;77435.13;;;-143.60;29.85
68329;BME280;55182;56.864;60.554;2023-03-19T09:15:45;77429.09;;;-143.60;30.35
68329;BME280;55182;56.864;60.554;2023-03-19T09:18:11;77425.09;;;-143.60;31.01
68329;BME280;55182;56.864;60.554;2023-03-19T09:20:37;77417.03;;;-143.60;29.98
68329;BME280;55182;56.864;60.554;2023-03-19T09:23:03;77404.97;;;-143.60;30.11
68329;BME280;55182;56.864;60.554;2023-03-19T09:25:28;77386.88;;;-143.60;28.08
68329;BME280;55182;56.864;60.554;2023-03-19T09:27:55;77376.84;;;-143.60;28.32
68329;BME280;55182;56.864;60.554;2023-03-19T09:30:21;77380.84;;;-143.60;28.59
68329;BME280;55182;56.864;60.554;2023-03-19T09:32:48;77372.81;;;-143.60;28.84
68329;BME280;55182;56.864;60.554;2023-03-19T09:35:14;77356.75;;;-143.60;29.63
68329;BME280;55182;56.864;60.554;2023-03-19T09:37:40;77348.69;;;-143.60;29.52
68329;BME280;55182;56.864;60.554;2023-03-19T09:40:06;77324.56;;;-143.60;29.20
68329;BME280;55182;56.864;60.554;2023-03-19T09:45:17;77290.41;;;-143.60;29.29
68329;BME280;55182;56.864;60.554;2023-03-19T09:47:44;77270.31;;;-143.60;28.76
68329;BME280;55182;56.864;60.554;2023-03-19T09:50:18;77264.28;;;-143.60;28.28
68329;BME280;55182;56.864;60.554;2023-03-19T09:52:50;77258.25;;;-143.60;28.93
68329;BME280;55182;56.864;60.554;2023-03-19T09:57:49;77220.06;;;-143.60;28.21
68329;BME280;55182;56.864;60.554;2023-03-19T10:00:19;77203.97;;;-143.60;27.80
68329;BME280;55182;56.864;60.554;2023-03-19T10:02:46;77187.91;;;-143.60;28.57
68329;BME280;55182;56.864;60.554;2023-03-19T10:12:54;77264.28;;;-143.60;29.47
68329;BME280;55182;56.864;60.554;2023-03-19T10:15:24;77280.34;;;-143.60;28.04
68329;BME280;55182;56.864;60.554;2023-03-19T10:23:44;77326.59;;;-143.60;27.77
68329;BME280;55182;56.864;60.554;2023-03-19T10:25:44;77332.63;;;-143.60;28.80
68329;BME280;55182;56.864;60.554;2023-03-19T10:28:15;77332.63;;;-143.60;27.99
68329;BME280;55182;56.864;60.554;2023-03-19T10:30:41;77336.63;;;-143.60;28.28
68329;BME280;55182;56.864;60.554;2023-03-19T10:35:43;77356.75;;;-143.60;27.96
68329;BME280;55182;56.864;60.554;2023-03-19T10:38:19;77362.78;;;-143.60;28.22
68329;BME280;55182;56.864;60.554;2023-03-19T10:43:22;77364.78;;;-143.60;28.66
68329;BME280;55182;56.864;60.554;2023-03-19T10:45:50;77360.75;;;-143.60;28.72
68329;BME280;55182;56.864;60.554;2023-03-19T10:48:16;77370.81;;;-143.60;29.43
68329;BME280;55182;56.864;60.554;2023-03-19T10:50:50;77364.78;;;-143.60;28.78
68329;BME280;55182;56.864;60.554;2023-03-19T10:58:28;77380.84;;;-143.60;29.20
68329;BME280;55182;56.864;60.554;2023-03-19T11:00:55;77372.81;;;-143.60;28.54
68329;BME280;55182;56.864;60.554;2023-03-19T11:08:40;77366.78;;;-143.60;28.22
68329;BME280;55182;56.864;60.554;2023-03-19T11:11:21;77362.78;;;-143.60;30.02
68329;BME280;55182;56.864;60.554;2023-03-19T11:13:46;77360.75;;;-143.60;28.99
68329;BME280;55182;56.864;60.554;2023-03-19T11:16:12;77360.75;;;-143.60;28.39
68329;BME280;55182;56.864;60.554;2023-03-19T11:18:38;77362.78;;;-143.60;28.38
68329;BME280;55182;56.864;60.554;2023-03-19T11:21:06;77356.75;;;-143.60;29.42
68329;BME280;55182;56.864;60.554;2023-03-19T11:23:39;77350.72;;;-143.60;28.82
68329;BME280;55182;56.864;60.554;2023-03-19T11:26:06;77344.69;;;-143.60;28.68
68329;BME280;55182;56.864;60.554;2023-03-19T11:28:31;77332.63;;;-143.60;29.39
68329;BME280;55182;56.864;60.554;2023-03-19T11:38:33;77320.56;;;-143.60;29.08
68329;BME280;55182;56.864;60.554;2023-03-19T11:46:37;77328.59;;;-143.60;29.31
68329;BME280;55182;56.864;60.554;2023-03-19T11:51:51;77304.47;;;-143.60;28.14
68329;BME280;55182;56.864;60.554;2023-03-19T12:02:25;77280.34;;;-143.60;28.29
68329;BME280;55182;56.864;60.554;2023-03-19T12:10:36;77276.34;;;-143.60;28.32
68329;BME280;55182;56.864;60.554;2023-03-19T12:18:27;77256.22;;;-143.60;28.48
68329;BME280;55182;56.864;60.554;2023-03-19T12:23:29;77242.16;;;-143.60;27.42
68329;BME280;55182;56.864;60.554;2023-03-19T12:36:28;77079.34;;;-143.60;26.38
68329;BME280;55182;56.864;60.554;2023-03-19T12:38:58;76980.88;;;-143.60;25.88
68329;BME280;55182;56.864;60.554;2023-03-19T12:41:27;76902.47;;;-143.60;24.95
68329;BME280;55182;56.864;60.554;2023-03-19T12:48:59;76816.06;;;-143.60;24.31
68329;BME280;55182;56.864;60.554;2023-03-19T12:51:28;76781.91;;;-143.60;24.25
68329;BME280;55182;56.864;60.554;2023-03-19T12:54:04;76749.75;;;-143.60;23.69
68329;BME280;55182;56.864;60.554;2023-03-19T12:56:56;76709.53;;;-143.60;23.53
68329;BME280;55182;56.864;60.554;2023-03-19T13:01:51;76661.31;;;-143.60;23.76
68329;BME280;55182;56.864;60.554;2023-03-19T13:04:19;76665.31;;;-143.60;24.04
68329;BME280;55182;56.864;60.554;2023-03-19T13:06:55;76683.41;;;-143.60;23.81
68329;BME280;55182;56.864;60.554;2023-03-19T13:09:31;76749.75;;;-143.60;24.31
68329;BME280;55182;56.864;60.554;2023-03-19T13:14:36;76906.50;;;-143.60;24.64
68329;BME280;55182;56.864;60.554;2023-03-19T13:17:17;77005.00;;;-143.60;24.56
68329;BME280;55182;56.864;60.554;2023-03-19T13:19:49;77075.34;;;-143.60;25.16
68329;BME280;55182;56.864;60.554;2023-03-19T13:22:17;77121.56;;;-143.60;25.70
68329;BME280;55182;56.864;60.554;2023-03-19T13:24:43;77159.75;;;-143.60;25.98
68329;BME280;55182;56.864;60.554;2023-03-19T13:27:30;77187.91;;;-143.60;26.37
68329;BME280;55182;56.864;60.554;2023-03-19T13:30:00;77203.97;;;-143.60;26.56
68329;BME280;55182;56.864;60.554;2023-03-19T13:32:50;77220.06;;;-143.60;26.70
68329;BME280;55182;56.864;60.554;2023-03-19T13:43:02;77262.25;;;-143.60;27.96
68329;BME280;55182;56.864;60.554;2023-03-19T13:45:35;77260.25;;;-143.60;27.86
68329;BME280;55182;56.864;60.554;2023-03-19T13:50:59;77280.34;;;-143.60;28.52
68329;BME280;55182;56.864;60.554;2023-03-19T13:53:34;77288.41;;;-143.60;28.59
68329;BME280;55182;56.864;60.554;2023-03-19T13:56:03;77298.44;;;-143.60;28.57
68329;BME280;55182;56.864;60.554;2023-03-19T13:58:42;77302.47;;;-143.60;29.03
68329;BME280;55182;56.864;60.554;2023-03-19T14:04:06;77324.56;;;-143.60;28.85
68329;BME280;55182;56.864;60.554;2023-03-19T14:06:41;77332.63;;;-143.60;28.72
68329;BME280;55182;56.864;60.554;2023-03-19T14:11:51;77360.75;;;-143.60;28.54
68329;BME280;55182;56.864;60.554;2023-03-19T14:14:17;77374.81;;;-143.60;28.51
68329;BME280;55182;56.864;60.554;2023-03-19T14:16:42;77386.88;;;-143.60;28.57
68329;BME280;55182;56.864;60.554;2023-03-19T14:19:10;77394.94;;;-143.60;28.32
68329;BME280;55182;56.864;60.554;2023-03-19T14:27:40;77427.09;;;-143.60;28.27
68329;BME280;55182;56.864;60.554;2023-03-19T14:30:01;77443.16;;;-143.60;28.58
68329;BME280;55182;56.864;60.554;2023-03-19T14:32:31;77437.13;;;-143.60;28.84
68329;BME280;55182;56.864;60.554;2023-03-19T14:34:59;77443.16;;;-143.60;28.48